weather.gov     
National Weather Service

Terminal Aerodrome Forecast
NWS Homepage
This page is being discontinued on March 12, 2014.
The same data is available at this site. Please update your bookmarks.
Thank you, and we apologize for the inconvenience.
Please send an email to SR-SRH.Webmaster@noaa.gov with any concerns.


Current Version
Previous Version:    01  02  03  04  05  06  07  08  09  10  11  12  13  14  15  16  17  18  19  20  21  22  23  24  25  26  27  28  29  30  
   31  32  33  34  35  
[Printable]
187
FTUS43 KDMX 292341
TAFALO
TAF
KALO 292341Z 3000/3024 20010KT P6SM -SHRA FEW015 SCT030 BKN070
     FM300300 VRB04KT 6SM -TSRA SCT003 BKN050CB OVC100
     FM300700 26005KT 5SM BR VCSH SCT003 BKN050
     FM301100 28005KT 2SM BR SCT003 BKN010
     FM301500 29007KT 5SM BR SCT009 BKN020
     FM301630 30009KT P6SM SCT025=


187
FTUS43 KDMX 292341
TAFALO
TAF
KALO 292341Z 3000/3024 20010KT P6SM -SHRA FEW015 SCT030 BKN070
     FM300300 VRB04KT 6SM -TSRA SCT003 BKN050CB OVC100
     FM300700 26005KT 5SM BR VCSH SCT003 BKN050
     FM301100 28005KT 2SM BR SCT003 BKN010
     FM301500 29007KT 5SM BR SCT009 BKN020
     FM301630 30009KT P6SM SCT025=




U.S. Dept. of Commerce
NOAA National Weather Service
1325 East West Highway
Silver Spring, MD 20910
E-mail: w-nws.webmaster@noaa.gov
Page last modified: May 16, 2007
NATIONAL WEATHER SERVICE: for Safety, for Work, for Fun - FOR LIFE